sensor_id;sensor_type;location;lat;lon;timestamp;P1;durP1;ratioP1;P2;durP2;ratioP2
65463;SDS011;52063;45.110;9.870;2023-01-19T00:01:52;11.40;;;9.77;;
65463;SDS011;52063;45.110;9.870;2023-01-19T00:04:18;12.23;;;10.23;;
65463;SDS011;52063;45.110;9.870;2023-01-19T00:06:43;12.13;;;10.40;;
65463;SDS011;52063;45.110;9.870;2023-01-19T00:09:09;13.30;;;11.13;;
65463;SDS011;52063;45.110;9.870;2023-01-19T00:11:34;12.27;;;10.73;;
65463;SDS011;52063;45.110;9.870;2023-01-19T00:14:00;11.25;;;9.48;;
65463;SDS011;52063;45.110;9.870;2023-01-19T00:16:25;11.53;;;9.40;;
65463;SDS011;52063;45.110;9.870;2023-01-19T00:18:51;12.73;;;10.50;;
65463;SDS011;52063;45.110;9.870;2023-01-19T00:21:17;12.07;;;9.98;;
65463;SDS011;52063;45.110;9.870;2023-01-19T00:23:42;12.07;;;9.63;;
65463;SDS011;52063;45.110;9.870;2023-01-19T00:26:11;13.97;;;10.70;;
65463;SDS011;52063;45.110;9.870;2023-01-19T00:28:38;12.77;;;10.00;;
65463;SDS011;52063;45.110;9.870;2023-01-19T00:31:03;15.63;;;10.18;;
65463;SDS011;52063;45.110;9.870;2023-01-19T00:33:29;12.70;;;10.30;;
65463;SDS011;52063;45.110;9.870;2023-01-19T00:35:54;12.43;;;10.50;;
65463;SDS011;52063;45.110;9.870;2023-01-19T00:38:20;11.37;;;9.40;;
65463;SDS011;52063;45.110;9.870;2023-01-19T00:40:46;12.33;;;9.93;;
65463;SDS011;52063;45.110;9.870;2023-01-19T00:43:12;11.82;;;10.30;;
65463;SDS011;52063;45.110;9.870;2023-01-19T00:45:37;11.83;;;9.60;;
65463;SDS011;52063;45.110;9.870;2023-01-19T00:48:02;14.43;;;10.25;;
65463;SDS011;52063;45.110;9.870;2023-01-19T00:50:28;12.60;;;9.70;;
65463;SDS011;52063;45.110;9.870;2023-01-19T00:52:55;12.40;;;9.93;;
65463;SDS011;52063;45.110;9.870;2023-01-19T00:55:21;11.27;;;9.90;;
65463;SDS011;52063;45.110;9.870;2023-01-19T00:57:47;12.70;;;9.77;;
65463;SDS011;52063;45.110;9.870;2023-01-19T01:00:14;12.48;;;10.38;;
65463;SDS011;52063;45.110;9.870;2023-01-19T01:02:41;12.60;;;9.77;;
65463;SDS011;52063;45.110;9.870;2023-01-19T01:05:07;11.73;;;9.68;;
65463;SDS011;52063;45.110;9.870;2023-01-19T01:07:33;12.27;;;9.98;;
65463;SDS011;52063;45.110;9.870;2023-01-19T01:10:08;11.07;;;9.50;;
65463;SDS011;52063;45.110;9.870;2023-01-19T01:12:38;11.95;;;10.05;;
65463;SDS011;52063;45.110;9.870;2023-01-19T01:15:05;11.35;;;9.68;;
65463;SDS011;52063;45.110;9.870;2023-01-19T01:17:32;11.32;;;9.00;;
65463;SDS011;52063;45.110;9.870;2023-01-19T01:19:57;10.83;;;8.60;;
65463;SDS011;52063;45.110;9.870;2023-01-19T01:22:23;11.07;;;9.37;;
65463;SDS011;52063;45.110;9.870;2023-01-19T01:24:48;11.07;;;9.00;;
65463;SDS011;52063;45.110;9.870;2023-01-19T01:27:14;10.45;;;9.27;;
65463;SDS011;52063;45.110;9.870;2023-01-19T01:29:39;10.33;;;9.07;;
65463;SDS011;52063;45.110;9.870;2023-01-19T01:32:07;11.65;;;9.27;;
65463;SDS011;52063;45.110;9.870;2023-01-19T01:34:32;12.10;;;9.68;;
65463;SDS011;52063;45.110;9.870;2023-01-19T01:36:58;11.07;;;9.70;;
65463;SDS011;52063;45.110;9.870;2023-01-19T01:39:23;12.90;;;9.40;;
65463;SDS011;52063;45.110;9.870;2023-01-19T01:41:48;11.00;;;9.70;;
65463;SDS011;52063;45.110;9.870;2023-01-19T01:47:17;11.27;;;9.40;;
65463;SDS011;52063;45.110;9.870;2023-01-19T01:49:45;12.37;;;10.40;;
65463;SDS011;52063;45.110;9.870;2023-01-19T01:52:12;10.73;;;9.57;;
65463;SDS011;52063;45.110;9.870;2023-01-19T01:54:38;10.55;;;9.10;;
65463;SDS011;52063;45.110;9.870;2023-01-19T01:57:04;11.93;;;9.93;;
65463;SDS011;52063;45.110;9.870;2023-01-19T01:59:38;11.65;;;9.00;;
65463;SDS011;52063;45.110;9.870;2023-01-19T02:02:14;12.25;;;9.75;;
65463;SDS011;52063;45.110;9.870;2023-01-19T02:05:05;11.88;;;8.75;;
65463;SDS011;52063;45.110;9.870;2023-01-19T02:10:58;11.47;;;9.37;;
65463;SDS011;52063;45.110;9.870;2023-01-19T02:13:43;12.48;;;9.45;;
65463;SDS011;52063;45.110;9.870;2023-01-19T02:16:11;12.32;;;9.90;;
65463;SDS011;52063;45.110;9.870;2023-01-19T02:18:37;12.68;;;9.02;;
65463;SDS011;52063;45.110;9.870;2023-01-19T02:21:48;10.57;;;8.63;;
65463;SDS011;52063;45.110;9.870;2023-01-19T02:24:11;11.87;;;9.23;;
65463;SDS011;52063;45.110;9.870;2023-01-19T02:26:38;9.70;;;8.70;;
65463;SDS011;52063;45.110;9.870;2023-01-19T02:29:09;11.23;;;8.93;;
65463;SDS011;52063;45.110;9.870;2023-01-19T02:31:36;10.43;;;8.75;;
65463;SDS011;52063;45.110;9.870;2023-01-19T02:34:03;10.80;;;8.93;;
65463;SDS011;52063;45.110;9.870;2023-01-19T02:36:34;11.30;;;9.17;;
65463;SDS011;52063;45.110;9.870;2023-01-19T02:39:03;14.63;;;8.65;;
65463;SDS011;52063;45.110;9.870;2023-01-19T02:41:29;9.70;;;8.70;;
65463;SDS011;52063;45.110;9.870;2023-01-19T02:43:58;10.07;;;8.77;;
65463;SDS011;52063;45.110;9.870;2023-01-19T02:46:25;10.68;;;9.38;;
65463;SDS011;52063;45.110;9.870;2023-01-19T02:48:50;10.40;;;8.83;;
65463;SDS011;52063;45.110;9.870;2023-01-19T02:51:20;9.63;;;8.63;;
65463;SDS011;52063;45.110;9.870;2023-01-19T02:53:52;9.93;;;8.90;;
65463;SDS011;52063;45.110;9.870;2023-01-19T03:06:54;10.93;;;8.77;;
65463;SDS011;52063;45.110;9.870;2023-01-19T03:12:03;11.02;;;9.10;;
65463;SDS011;52063;45.110;9.870;2023-01-19T03:14:35;11.05;;;9.07;;
65463;SDS011;52063;45.110;9.870;2023-01-19T03:17:02;10.18;;;8.98;;
65463;SDS011;52063;45.110;9.870;2023-01-19T03:19:33;9.50;;;8.53;;
65463;SDS011;52063;45.110;9.870;2023-01-19T03:22:05;10.90;;;8.98;;
65463;SDS011;52063;45.110;9.870;2023-01-19T03:24:35;9.85;;;8.32;;
65463;SDS011;52063;45.110;9.870;2023-01-19T03:27:04;10.68;;;8.32;;
65463;SDS011;52063;45.110;9.870;2023-01-19T03:29:33;9.40;;;8.40;;
65463;SDS011;52063;45.110;9.870;2023-01-19T03:32:00;10.93;;;8.30;;
65463;SDS011;52063;45.110;9.870;2023-01-19T03:34:27;9.32;;;8.07;;
65463;SDS011;52063;45.110;9.870;2023-01-19T03:36:54;10.60;;;8.00;;
65463;SDS011;52063;45.110;9.870;2023-01-19T03:39:22;9.65;;;7.93;;
65463;SDS011;52063;45.110;9.870;2023-01-19T03:41:50;10.93;;;8.15;;
65463;SDS011;52063;45.110;9.870;2023-01-19T03:44:17;9.63;;;7.43;;
65463;SDS011;52063;45.110;9.870;2023-01-19T03:46:44;8.15;;;7.25;;
65463;SDS011;52063;45.110;9.870;2023-01-19T03:49:10;9.18;;;7.75;;
65463;SDS011;52063;45.110;9.870;2023-01-19T03:51:36;8.63;;;7.73;;
65463;SDS011;52063;45.110;9.870;2023-01-19T03:54:02;9.20;;;7.57;;
65463;SDS011;52063;45.110;9.870;2023-01-19T03:56:29;8.90;;;7.97;;
65463;SDS011;52063;45.110;9.870;2023-01-19T03:58:55;9.37;;;7.60;;
65463;SDS011;52063;45.110;9.870;2023-01-19T04:01:20;8.93;;;8.03;;
65463;SDS011;52063;45.110;9.870;2023-01-19T04:03:47;7.70;;;6.90;;
65463;SDS011;52063;45.110;9.870;2023-01-19T04:06:13;9.55;;;7.93;;
65463;SDS011;52063;45.110;9.870;2023-01-19T04:08:38;7.97;;;7.13;;
65463;SDS011;52063;45.110;9.870;2023-01-19T04:11:04;8.00;;;7.20;;
65463;SDS011;52063;45.110;9.870;2023-01-19T04:13:30;9.15;;;7.07;;
65463;SDS011;52063;45.110;9.870;2023-01-19T04:15:59;8.33;;;7.53;;
65463;SDS011;52063;45.110;9.870;2023-01-19T04:18:26;7.30;;;6.55;;
65463;SDS011;52063;45.110;9.870;2023-01-19T04:20:52;8.43;;;7.13;;
65463;SDS011;52063;45.110;9.870;2023-01-19T04:23:18;7.70;;;6.90;;
65463;SDS011;52063;45.110;9.870;2023-01-19T04:25:44;7.20;;;6.50;;
65463;SDS011;52063;45.110;9.870;2023-01-19T04:28:10;7.50;;;6.70;;
65463;SDS011;52063;45.110;9.870;2023-01-19T04:30:36;8.43;;;6.47;;
65463;SDS011;52063;45.110;9.870;2023-01-19T04:33:01;7.47;;;6.78;;
65463;SDS011;52063;45.110;9.870;2023-01-19T04:35:27;8.40;;;6.13;;
65463;SDS011;52063;45.110;9.870;2023-01-19T04:37:52;7.05;;;6.30;;
65463;SDS011;52063;45.110;9.870;2023-01-19T04:40:18;6.83;;;6.13;;
65463;SDS011;52063;45.110;9.870;2023-01-19T04:42:44;6.93;;;6.23;;
65463;SDS011;52063;45.110;9.870;2023-01-19T04:45:10;8.87;;;6.60;;
65463;SDS011;52063;45.110;9.870;2023-01-19T04:47:36;6.88;;;6.13;;
65463;SDS011;52063;45.110;9.870;2023-01-19T04:50:02;7.87;;;6.00;;
65463;SDS011;52063;45.110;9.870;2023-01-19T04:52:33;6.10;;;5.50;;
65463;SDS011;52063;45.110;9.870;2023-01-19T04:54:59;6.93;;;6.22;;
65463;SDS011;52063;45.110;9.870;2023-01-19T04:57:30;6.40;;;5.80;;
65463;SDS011;52063;45.110;9.870;2023-01-19T04:59:56;7.10;;;6.40;;
65463;SDS011;52063;45.110;9.870;2023-01-19T05:02:22;8.13;;;5.85;;
65463;SDS011;52063;45.110;9.870;2023-01-19T05:04:48;6.57;;;5.97;;
65463;SDS011;52063;45.110;9.870;2023-01-19T05:07:13;6.78;;;6.07;;
65463;SDS011;52063;45.110;9.870;2023-01-19T05:09:39;6.60;;;5.90;;
65463;SDS011;52063;45.110;9.870;2023-01-19T05:12:04;6.73;;;6.13;;
65463;SDS011;52063;45.110;9.870;2023-01-19T05:14:30;6.22;;;5.63;;
65463;SDS011;52063;45.110;9.870;2023-01-19T05:16:55;6.67;;;6.00;;
65463;SDS011;52063;45.110;9.870;2023-01-19T05:19:21;7.23;;;5.83;;
65463;SDS011;52063;45.110;9.870;2023-01-19T05:21:47;6.05;;;5.47;;
65463;SDS011;52063;45.110;9.870;2023-01-19T05:24:13;7.13;;;5.40;;
65463;SDS011;52063;45.110;9.870;2023-01-19T05:26:39;5.30;;;4.80;;
65463;SDS011;52063;45.110;9.870;2023-01-19T05:29:04;5.50;;;5.00;;
65463;SDS011;52063;45.110;9.870;2023-01-19T05:31:30;7.43;;;5.57;;
65463;SDS011;52063;45.110;9.870;2023-01-19T05:33:55;6.93;;;5.27;;
65463;SDS011;52063;45.110;9.870;2023-01-19T05:36:21;6.13;;;4.80;;
65463;SDS011;52063;45.110;9.870;2023-01-19T05:38:46;6.87;;;4.93;;
65463;SDS011;52063;45.110;9.870;2023-01-19T05:41:12;5.57;;;5.03;;
65463;SDS011;52063;45.110;9.870;2023-01-19T05:43:38;5.70;;;5.03;;
65463;SDS011;52063;45.110;9.870;2023-01-19T05:46:03;5.85;;;4.68;;
65463;SDS011;52063;45.110;9.870;2023-01-19T05:48:30;6.13;;;4.80;;
65463;SDS011;52063;45.110;9.870;2023-01-19T05:50:56;5.97;;;5.38;;
65463;SDS011;52063;45.110;9.870;2023-01-19T05:53:22;5.47;;;5.00;;
65463;SDS011;52063;45.110;9.870;2023-01-19T05:55:47;5.47;;;4.97;;
65463;SDS011;52063;45.110;9.870;2023-01-19T05:58:13;5.53;;;5.00;;
65463;SDS011;52063;45.110;9.870;2023-01-19T06:00:38;5.40;;;4.90;;
65463;SDS011;52063;45.110;9.870;2023-01-19T06:03:04;5.30;;;4.80;;
65463;SDS011;52063;45.110;9.870;2023-01-19T06:05:30;5.43;;;4.40;;
65463;SDS011;52063;45.110;9.870;2023-01-19T06:07:56;4.63;;;4.22;;
65463;SDS011;52063;45.110;9.870;2023-01-19T06:10:22;5.45;;;4.95;;
65463;SDS011;52063;45.110;9.870;2023-01-19T06:12:48;5.30;;;4.80;;
65463;SDS011;52063;45.110;9.870;2023-01-19T06:15:13;4.90;;;4.47;;
65463;SDS011;52063;45.110;9.870;2023-01-19T06:17:39;5.00;;;4.50;;
65463;SDS011;52063;45.110;9.870;2023-01-19T06:20:05;5.35;;;4.13;;
65463;SDS011;52063;45.110;9.870;2023-01-19T06:22:31;4.22;;;3.78;;
65463;SDS011;52063;45.110;9.870;2023-01-19T06:24:57;4.83;;;4.40;;
65463;SDS011;52063;45.110;9.870;2023-01-19T06:27:22;4.60;;;4.10;;
65463;SDS011;52063;45.110;9.870;2023-01-19T06:29:47;4.40;;;4.00;;
65463;SDS011;52063;45.110;9.870;2023-01-19T06:32:13;6.43;;;4.20;;
65463;SDS011;52063;45.110;9.870;2023-01-19T06:34:38;4.47;;;4.07;;
65463;SDS011;52063;45.110;9.870;2023-01-19T06:37:08;5.00;;;4.60;;
65463;SDS011;52063;45.110;9.870;2023-01-19T06:39:35;4.63;;;4.22;;
65463;SDS011;52063;45.110;9.870;2023-01-19T06:42:02;5.57;;;4.07;;
65463;SDS011;52063;45.110;9.870;2023-01-19T06:44:27;4.57;;;4.18;;
65463;SDS011;52063;45.110;9.870;2023-01-19T06:46:53;4.20;;;3.80;;
65463;SDS011;52063;45.110;9.870;2023-01-19T06:49:19;4.50;;;4.10;;
65463;SDS011;52063;45.110;9.870;2023-01-19T06:51:44;3.93;;;3.63;;
65463;SDS011;52063;45.110;9.870;2023-01-19T06:54:09;3.93;;;3.63;;
65463;SDS011;52063;45.110;9.870;2023-01-19T06:56:35;4.07;;;3.70;;
65463;SDS011;52063;45.110;9.870;2023-01-19T06:59:01;4.20;;;3.80;;
65463;SDS011;52063;45.110;9.870;2023-01-19T07:01:26;5.13;;;3.30;;
65463;SDS011;52063;45.110;9.870;2023-01-19T07:03:52;3.80;;;3.43;;
65463;SDS011;52063;45.110;9.870;2023-01-19T07:06:18;3.63;;;3.33;;
65463;SDS011;52063;45.110;9.870;2023-01-19T07:08:43;3.37;;;3.07;;
65463;SDS011;52063;45.110;9.870;2023-01-19T07:11:10;3.60;;;3.30;;
65463;SDS011;52063;45.110;9.870;2023-01-19T07:13:37;3.70;;;3.40;;
65463;SDS011;52063;45.110;9.870;2023-01-19T07:16:10;3.30;;;3.10;;
65463;SDS011;52063;45.110;9.870;2023-01-19T07:18:36;3.28;;;3.08;;
65463;SDS011;52063;45.110;9.870;2023-01-19T07:21:03;3.10;;;2.90;;
65463;SDS011;52063;45.110;9.870;2023-01-19T07:23:29;3.33;;;3.03;;
65463;SDS011;52063;45.110;9.870;2023-01-19T07:25:55;3.10;;;2.90;;
65463;SDS011;52063;45.110;9.870;2023-01-19T07:28:21;2.92;;;2.72;;
65463;SDS011;52063;45.110;9.870;2023-01-19T07:30:49;3.30;;;3.00;;
65463;SDS011;52063;45.110;9.870;2023-01-19T07:33:15;3.47;;;3.17;;
65463;SDS011;52063;45.110;9.870;2023-01-19T07:35:45;3.10;;;2.80;;
65463;SDS011;52063;45.110;9.870;2023-01-19T07:38:11;3.80;;;3.13;;
65463;SDS011;52063;45.110;9.870;2023-01-19T07:40:37;3.20;;;3.00;;
65463;SDS011;52063;45.110;9.870;2023-01-19T07:43:02;3.40;;;3.10;;
65463;SDS011;52063;45.110;9.870;2023-01-19T07:45:27;3.17;;;2.90;;
65463;SDS011;52063;45.110;9.870;2023-01-19T07:47:53;3.70;;;3.40;;
65463;SDS011;52063;45.110;9.870;2023-01-19T07:50:18;3.33;;;3.07;;
65463;SDS011;52063;45.110;9.870;2023-01-19T07:52:49;4.10;;;3.30;;
65463;SDS011;52063;45.110;9.870;2023-01-19T07:55:17;3.45;;;3.00;;
65463;SDS011;52063;45.110;9.870;2023-01-19T07:57:50;3.50;;;3.20;;
65463;SDS011;52063;45.110;9.870;2023-01-19T08:00:16;3.53;;;3.22;;
65463;SDS011;52063;45.110;9.870;2023-01-19T08:02:46;3.53;;;3.22;;
65463;SDS011;52063;45.110;9.870;2023-01-19T08:05:14;3.55;;;3.25;;
65463;SDS011;52063;45.110;9.870;2023-01-19T08:07:40;3.55;;;3.25;;
65463;SDS011;52063;45.110;9.870;2023-01-19T08:10:06;3.40;;;3.10;;
65463;SDS011;52063;45.110;9.870;2023-01-19T08:12:32;3.40;;;3.10;;
65463;SDS011;52063;45.110;9.870;2023-01-19T08:14:58;4.40;;;3.17;;
65463;SDS011;52063;45.110;9.870;2023-01-19T08:17:24;3.50;;;3.20;;
65463;SDS011;52063;45.110;9.870;2023-01-19T08:19:49;3.83;;;3.53;;
65463;SDS011;52063;45.110;9.870;2023-01-19T08:22:15;3.40;;;3.10;;
65463;SDS011;52063;45.110;9.870;2023-01-19T08:24:40;3.85;;;3.55;;
65463;SDS011;52063;45.110;9.870;2023-01-19T08:27:06;3.83;;;3.43;;
65463;SDS011;52063;45.110;9.870;2023-01-19T08:29:33;3.20;;;3.00;;
65463;SDS011;52063;45.110;9.870;2023-01-19T08:31:59;4.63;;;3.73;;
65463;SDS011;52063;45.110;9.870;2023-01-19T08:34:27;3.90;;;3.50;;
65463;SDS011;52063;45.110;9.870;2023-01-19T08:36:55;5.03;;;3.50;;
65463;SDS011;52063;45.110;9.870;2023-01-19T08:39:21;3.80;;;3.50;;
65463;SDS011;52063;45.110;9.870;2023-01-19T08:41:48;3.60;;;3.30;;
65463;SDS011;52063;45.110;9.870;2023-01-19T08:44:16;7.97;;;3.60;;
65463;SDS011;52063;45.110;9.870;2023-01-19T08:46:42;3.53;;;3.22;;
65463;SDS011;52063;45.110;9.870;2023-01-19T08:49:08;3.80;;;3.33;;
65463;SDS011;52063;45.110;9.870;2023-01-19T08:51:34;3.77;;;3.47;;
65463;SDS011;52063;45.110;9.870;2023-01-19T08:53:59;3.83;;;3.53;;
65463;SDS011;52063;45.110;9.870;2023-01-19T08:56:25;4.10;;;3.45;;
65463;SDS011;52063;45.110;9.870;2023-01-19T08:58:50;3.60;;;3.30;;
65463;SDS011;52063;45.110;9.870;2023-01-19T09:01:16;3.40;;;3.10;;
65463;SDS011;52063;45.110;9.870;2023-01-19T09:03:42;3.40;;;3.10;;
65463;SDS011;52063;45.110;9.870;2023-01-19T09:06:08;4.53;;;3.55;;
65463;SDS011;52063;45.110;9.870;2023-01-19T09:08:35;4.57;;;3.58;;
65463;SDS011;52063;45.110;9.870;2023-01-19T09:11:01;3.93;;;3.60;;
65463;SDS011;52063;45.110;9.870;2023-01-19T09:13:26;4.33;;;3.93;;
65463;SDS011;52063;45.110;9.870;2023-01-19T09:15:52;4.82;;;4.30;;
65463;SDS011;52063;45.110;9.870;2023-01-19T09:18:19;4.77;;;3.80;;
65463;SDS011;52063;45.110;9.870;2023-01-19T09:20:47;4.32;;;3.92;;
65463;SDS011;52063;45.110;9.870;2023-01-19T09:23:14;4.07;;;3.72;;
65463;SDS011;52063;45.110;9.870;2023-01-19T09:25:42;6.38;;;4.38;;
65463;SDS011;52063;45.110;9.870;2023-01-19T09:28:09;4.50;;;4.10;;
65463;SDS011;52063;45.110;9.870;2023-01-19T09:30:36;4.25;;;3.85;;
65463;SDS011;52063;45.110;9.870;2023-01-19T09:33:03;5.00;;;4.53;;
65463;SDS011;52063;45.110;9.870;2023-01-19T09:35:32;5.53;;;4.32;;
65463;SDS011;52063;45.110;9.870;2023-01-19T09:37:58;4.90;;;4.40;;
65463;SDS011;52063;45.110;9.870;2023-01-19T09:40:24;4.93;;;4.43;;
65463;SDS011;52063;45.110;9.870;2023-01-19T09:42:54;4.68;;;4.07;;
65463;SDS011;52063;45.110;9.870;2023-01-19T09:47:54;5.07;;;4.63;;
65463;SDS011;52063;45.110;9.870;2023-01-19T09:50:30;5.32;;;4.82;;
65463;SDS011;52063;45.110;9.870;2023-01-19T09:53:12;5.57;;;4.97;;
65463;SDS011;52063;45.110;9.870;2023-01-19T09:55:41;5.80;;;5.20;;
65463;SDS011;52063;45.110;9.870;2023-01-19T09:58:22;6.32;;;5.22;;
65463;SDS011;52063;45.110;9.870;2023-01-19T10:00:49;6.27;;;5.50;;
65463;SDS011;52063;45.110;9.870;2023-01-19T10:03:19;6.90;;;4.93;;
65463;SDS011;52063;45.110;9.870;2023-01-19T10:05:48;6.30;;;5.60;;
65463;SDS011;52063;45.110;9.870;2023-01-19T10:11:10;8.40;;;5.78;;
65463;SDS011;52063;45.110;9.870;2023-01-19T10:19:22;6.20;;;5.60;;
65463;SDS011;52063;45.110;9.870;2023-01-19T10:21:52;11.40;;;5.10;;
65463;SDS011;52063;45.110;9.870;2023-01-19T10:24:22;6.15;;;5.55;;
65463;SDS011;52063;45.110;9.870;2023-01-19T10:26:54;8.63;;;5.40;;
65463;SDS011;52063;45.110;9.870;2023-01-19T10:29:28;7.18;;;5.15;;
65463;SDS011;52063;45.110;9.870;2023-01-19T10:32:05;6.88;;;5.38;;
65463;SDS011;52063;45.110;9.870;2023-01-19T10:34:33;6.10;;;5.50;;
65463;SDS011;52063;45.110;9.870;2023-01-19T10:37:03;6.33;;;5.23;;
65463;SDS011;52063;45.110;9.870;2023-01-19T10:39:30;7.57;;;5.28;;
65463;SDS011;52063;45.110;9.870;2023-01-19T10:41:55;5.67;;;5.00;;
65463;SDS011;52063;45.110;9.870;2023-01-19T10:44:23;5.97;;;5.38;;
65463;SDS011;52063;45.110;9.870;2023-01-19T10:46:49;5.50;;;5.00;;
65463;SDS011;52063;45.110;9.870;2023-01-19T10:55:10;5.90;;;5.33;;
65463;SDS011;52063;45.110;9.870;2023-01-19T10:57:48;6.28;;;4.97;;
65463;SDS011;52063;45.110;9.870;2023-01-19T11:03:04;6.05;;;5.28;;
65463;SDS011;52063;45.110;9.870;2023-01-19T11:05:45;5.68;;;5.13;;
65463;SDS011;52063;45.110;9.870;2023-01-19T11:08:26;5.53;;;4.97;;
65463;SDS011;52063;45.110;9.870;2023-01-19T11:10:58;6.22;;;5.60;;
65463;SDS011;52063;45.110;9.870;2023-01-19T11:13:26;10.68;;;5.00;;
65463;SDS011;52063;45.110;9.870;2023-01-19T11:15:56;5.50;;;5.00;;
65463;SDS011;52063;45.110;9.870;2023-01-19T11:18:26;6.88;;;5.18;;
65463;SDS011;52063;45.110;9.870;2023-01-19T11:20:53;6.68;;;5.05;;
65463;SDS011;52063;45.110;9.870;2023-01-19T11:25:50;5.87;;;4.57;;
65463;SDS011;52063;45.110;9.870;2023-01-19T11:28:28;5.40;;;4.93;;
65463;SDS011;52063;45.110;9.870;2023-01-19T11:30:55;5.22;;;4.70;;
65463;SDS011;52063;45.110;9.870;2023-01-19T11:33:24;6.18;;;4.50;;
65463;SDS011;52063;45.110;9.870;2023-01-19T11:36:03;5.63;;;4.30;;
65463;SDS011;52063;45.110;9.870;2023-01-19T11:38:31;5.33;;;4.57;;
65463;SDS011;52063;45.110;9.870;2023-01-19T11:40:57;5.50;;;4.55;;
65463;SDS011;52063;45.110;9.870;2023-01-19T11:43:26;5.22;;;4.78;;
65463;SDS011;52063;45.110;9.870;2023-01-19T11:45:53;6.20;;;4.30;;
65463;SDS011;52063;45.110;9.870;2023-01-19T11:48:30;4.60;;;4.10;;
65463;SDS011;52063;45.110;9.870;2023-01-19T11:50:58;5.28;;;4.78;;
65463;SDS011;52063;45.110;9.870;2023-01-19T11:53:26;5.00;;;4.60;;
65463;SDS011;52063;45.110;9.870;2023-01-19T11:58:42;6.07;;;4.57;;
65463;SDS011;52063;45.110;9.870;2023-01-19T12:01:32;5.10;;;4.60;;
65463;SDS011;52063;45.110;9.870;2023-01-19T12:04:11;6.53;;;4.40;;
65463;SDS011;52063;45.110;9.870;2023-01-19T12:06:40;4.55;;;4.13;;
65463;SDS011;52063;45.110;9.870;2023-01-19T12:11:35;5.63;;;3.77;;
65463;SDS011;52063;45.110;9.870;2023-01-19T12:14:01;5.70;;;4.40;;
65463;SDS011;52063;45.110;9.870;2023-01-19T12:16:29;4.25;;;3.85;;
65463;SDS011;52063;45.110;9.870;2023-01-19T12:21:22;4.50;;;4.10;;
65463;SDS011;52063;45.110;9.870;2023-01-19T12:26:46;4.30;;;3.90;;
65463;SDS011;52063;45.110;9.870;2023-01-19T12:29:19;4.65;;;4.18;;
65463;SDS011;52063;45.110;9.870;2023-01-19T12:39:58;4.10;;;3.70;;
65463;SDS011;52063;45.110;9.870;2023-01-19T12:42:26;4.55;;;3.97;;
65463;SDS011;52063;45.110;9.870;2023-01-19T12:45:03;4.60;;;4.20;;
65463;SDS011;52063;45.110;9.870;2023-01-19T12:47:29;4.57;;;3.88;;
65463;SDS011;52063;45.110;9.870;2023-01-19T12:49:55;4.33;;;3.93;;
65463;SDS011;52063;45.110;9.870;2023-01-19T12:52:33;4.20;;;3.80;;
65463;SDS011;52063;45.110;9.870;2023-01-19T12:57:45;5.32;;;3.88;;
65463;SDS011;52063;45.110;9.870;2023-01-19T13:02:47;3.95;;;3.65;;
65463;SDS011;52063;45.110;9.870;2023-01-19T13:23:55;3.42;;;3.13;;
65463;SDS011;52063;45.110;9.870;2023-01-19T13:26:31;4.03;;;3.73;;
65463;SDS011;52063;45.110;9.870;2023-01-19T13:29:09;3.92;;;3.58;;
65463;SDS011;52063;45.110;9.870;2023-01-19T13:31:39;3.80;;;3.50;;
65463;SDS011;52063;45.110;9.870;2023-01-19T13:34:10;4.20;;;3.80;;
65463;SDS011;52063;45.110;9.870;2023-01-19T13:36:38;3.80;;;3.50;;
65463;SDS011;52063;45.110;9.870;2023-01-19T13:41:48;3.95;;;3.60;;
65463;SDS011;52063;45.110;9.870;2023-01-19T13:44:19;3.70;;;3.40;;
65463;SDS011;52063;45.110;9.870;2023-01-19T13:46:48;4.03;;;3.72;;
65463;SDS011;52063;45.110;9.870;2023-01-19T13:49:34;4.10;;;3.80;;
65463;SDS011;52063;45.110;9.870;2023-01-19T13:52:11;3.93;;;3.53;;
65463;SDS011;52063;45.110;9.870;2023-01-19T13:54:49;4.00;;;3.60;;
65463;SDS011;52063;45.110;9.870;2023-01-19T14:00:03;3.83;;;3.53;;
65463;SDS011;52063;45.110;9.870;2023-01-19T14:02:39;3.85;;;3.50;;
65463;SDS011;52063;45.110;9.870;2023-01-19T14:05:12;3.67;;;3.37;;
65463;SDS011;52063;45.110;9.870;2023-01-19T14:07:37;3.90;;;3.60;;
65463;SDS011;52063;45.110;9.870;2023-01-19T14:10:04;4.10;;;3.63;;
65463;SDS011;52063;45.110;9.870;2023-01-19T14:12:30;5.22;;;3.67;;
65463;SDS011;52063;45.110;9.870;2023-01-19T14:14:56;3.85;;;3.55;;
65463;SDS011;52063;45.110;9.870;2023-01-19T14:19:55;4.63;;;3.67;;
65463;SDS011;52063;45.110;9.870;2023-01-19T14:22:40;3.73;;;3.43;;
65463;SDS011;52063;45.110;9.870;2023-01-19T14:25:20;3.60;;;3.28;;
65463;SDS011;52063;45.110;9.870;2023-01-19T14:30:57;3.85;;;3.55;;
65463;SDS011;52063;45.110;9.870;2023-01-19T14:33:43;3.70;;;3.40;;
65463;SDS011;52063;45.110;9.870;2023-01-19T14:38:44;3.92;;;3.40;;
65463;SDS011;52063;45.110;9.870;2023-01-19T14:41:10;3.50;;;3.20;;
65463;SDS011;52063;45.110;9.870;2023-01-19T14:43:41;3.97;;;3.63;;
65463;SDS011;52063;45.110;9.870;2023-01-19T14:46:13;3.60;;;3.30;;
65463;SDS011;52063;45.110;9.870;2023-01-19T14:48:44;3.75;;;3.35;;
65463;SDS011;52063;45.110;9.870;2023-01-19T14:51:11;3.85;;;3.50;;
65463;SDS011;52063;45.110;9.870;2023-01-19T14:53:44;4.32;;;3.70;;
65463;SDS011;52063;45.110;9.870;2023-01-19T14:56:12;3.83;;;3.42;;
65463;SDS011;52063;45.110;9.870;2023-01-19T14:58:49;3.83;;;3.40;;
65463;SDS011;52063;45.110;9.870;2023-01-19T15:01:14;3.80;;;3.50;;
65463;SDS011;52063;45.110;9.870;2023-01-19T15:03:39;3.40;;;3.10;;
65463;SDS011;52063;45.110;9.870;2023-01-19T15:06:05;4.23;;;3.83;;
65463;SDS011;52063;45.110;9.870;2023-01-19T15:08:31;3.57;;;3.27;;
65463;SDS011;52063;45.110;9.870;2023-01-19T15:10:57;3.80;;;3.40;;
65463;SDS011;52063;45.110;9.870;2023-01-19T15:13:28;3.55;;;3.25;;
65463;SDS011;52063;45.110;9.870;2023-01-19T15:15:53;3.80;;;3.50;;
65463;SDS011;52063;45.110;9.870;2023-01-19T15:18:20;3.53;;;3.23;;
65463;SDS011;52063;45.110;9.870;2023-01-19T15:20:47;3.92;;;3.63;;
65463;SDS011;52063;45.110;9.870;2023-01-19T15:23:12;4.00;;;3.53;;
65463;SDS011;52063;45.110;9.870;2023-01-19T15:25:38;3.58;;;3.28;;
65463;SDS011;52063;45.110;9.870;2023-01-19T15:28:10;3.90;;;3.60;;
65463;SDS011;52063;45.110;9.870;2023-01-19T15:30:37;3.50;;;3.20;;
65463;SDS011;52063;45.110;9.870;2023-01-19T15:33:02;3.63;;;3.33;;
65463;SDS011;52063;45.110;9.870;2023-01-19T15:35:28;3.90;;;3.50;;
65463;SDS011;52063;45.110;9.870;2023-01-19T15:37:53;3.60;;;3.30;;
65463;SDS011;52063;45.110;9.870;2023-01-19T15:40:19;3.83;;;3.40;;
65463;SDS011;52063;45.110;9.870;2023-01-19T15:42:46;3.63;;;3.33;;
65463;SDS011;52063;45.110;9.870;2023-01-19T15:47:58;3.67;;;3.38;;
65463;SDS011;52063;45.110;9.870;2023-01-19T15:50:26;3.78;;;3.47;;
65463;SDS011;52063;45.110;9.870;2023-01-19T15:52:51;3.90;;;3.60;;
65463;SDS011;52063;45.110;9.870;2023-01-19T15:55:17;4.00;;;3.70;;
65463;SDS011;52063;45.110;9.870;2023-01-19T15:57:42;3.93;;;3.60;;
65463;SDS011;52063;45.110;9.870;2023-01-19T16:00:08;3.87;;;3.47;;
65463;SDS011;52063;45.110;9.870;2023-01-19T16:02:37;3.70;;;3.40;;
65463;SDS011;52063;45.110;9.870;2023-01-19T16:05:03;3.40;;;3.10;;
65463;SDS011;52063;45.110;9.870;2023-01-19T16:07:29;3.67;;;3.30;;
65463;SDS011;52063;45.110;9.870;2023-01-19T16:09:54;3.95;;;3.60;;
65463;SDS011;52063;45.110;9.870;2023-01-19T16:12:19;3.87;;;3.57;;
65463;SDS011;52063;45.110;9.870;2023-01-19T16:14:45;3.57;;;3.27;;
65463;SDS011;52063;45.110;9.870;2023-01-19T16:17:10;3.97;;;3.67;;
65463;SDS011;52063;45.110;9.870;2023-01-19T16:19:36;4.15;;;3.75;;
65463;SDS011;52063;45.110;9.870;2023-01-19T16:22:01;4.07;;;3.70;;
65463;SDS011;52063;45.110;9.870;2023-01-19T16:24:27;3.50;;;3.20;;
65463;SDS011;52063;45.110;9.870;2023-01-19T16:26:52;3.70;;;3.40;;
65463;SDS011;52063;45.110;9.870;2023-01-19T16:29:18;4.00;;;3.60;;
65463;SDS011;52063;45.110;9.870;2023-01-19T16:31:44;3.70;;;3.40;;